sensor_id;sensor_type;location;lat;lon;timestamp;P1;durP1;ratioP1;P2;durP2;ratioP2
30458;SDS011;17254;50.976;7.034;2022-12-18T00:00:03;27.48;;;18.63;;
30458;SDS011;17254;50.976;7.034;2022-12-18T00:00:19;26.88;;;18.44;;
30458;SDS011;17254;50.976;7.034;2022-12-18T00:00:25;27.45;;;17.98;;
30458;SDS011;17254;50.976;7.034;2022-12-18T00:00:32;28.32;;;17.78;;
30458;SDS011;17254;50.976;7.034;2022-12-18T00:00:39;28.98;;;17.65;;
30458;SDS011;17254;50.976;7.034;2022-12-18T00:00:45;27.20;;;17.57;;
30458;SDS011;17254;50.976;7.034;2022-12-18T00:00:52;27.66;;;17.64;;
30458;SDS011;17254;50.976;7.034;2022-12-18T00:00:58;27.92;;;17.80;;
30458;SDS011;17254;50.976;7.034;2022-12-18T00:01:04;28.05;;;17.67;;
30458;SDS011;17254;50.976;7.034;2022-12-18T00:01:19;29.02;;;18.13;;
30458;SDS011;17254;50.976;7.034;2022-12-18T00:01:26;29.70;;;18.63;;
30458;SDS011;17254;50.976;7.034;2022-12-18T00:01:34;29.22;;;18.90;;
30458;SDS011;17254;50.976;7.034;2022-12-18T00:01:41;28.98;;;18.73;;
30458;SDS011;17254;50.976;7.034;2022-12-18T00:01:47;27.92;;;18.60;;
30458;SDS011;17254;50.976;7.034;2022-12-18T00:01:53;27.83;;;18.57;;
30458;SDS011;17254;50.976;7.034;2022-12-18T00:02:03;27.89;;;18.45;;
30458;SDS011;17254;50.976;7.034;2022-12-18T00:02:10;28.00;;;18.30;;
30458;SDS011;17254;50.976;7.034;2022-12-18T00:02:15;28.33;;;18.42;;
30458;SDS011;17254;50.976;7.034;2022-12-18T00:02:21;28.03;;;18.67;;
30458;SDS011;17254;50.976;7.034;2022-12-18T00:02:27;27.95;;;18.77;;
30458;SDS011;17254;50.976;7.034;2022-12-18T00:02:33;27.60;;;18.70;;
30458;SDS011;17254;50.976;7.034;2022-12-18T00:02:39;27.60;;;18.93;;
30458;SDS011;17254;50.976;7.034;2022-12-18T00:02:45;27.67;;;18.73;;
30458;SDS011;17254;50.976;7.034;2022-12-18T00:02:51;27.88;;;18.33;;
30458;SDS011;17254;50.976;7.034;2022-12-18T00:02:57;27.52;;;17.92;;
30458;SDS011;17254;50.976;7.034;2022-12-18T00:03:03;27.20;;;17.80;;
30458;SDS011;17254;50.976;7.034;2022-12-18T00:03:09;27.75;;;17.67;;
30458;SDS011;17254;50.976;7.034;2022-12-18T00:03:15;27.90;;;18.10;;
30458;SDS011;17254;50.976;7.034;2022-12-18T00:03:22;29.02;;;18.40;;
30458;SDS011;17254;50.976;7.034;2022-12-18T00:03:28;30.38;;;18.65;;
30458;SDS011;17254;50.976;7.034;2022-12-18T00:03:34;30.52;;;18.73;;
30458;SDS011;17254;50.976;7.034;2022-12-18T00:03:40;29.62;;;19.04;;
30458;SDS011;17254;50.976;7.034;2022-12-18T00:03:46;31.05;;;19.35;;
30458;SDS011;17254;50.976;7.034;2022-12-18T00:03:54;30.73;;;19.23;;
30458;SDS011;17254;50.976;7.034;2022-12-18T00:04:01;28.83;;;18.83;;
30458;SDS011;17254;50.976;7.034;2022-12-18T00:04:14;29.51;;;18.44;;
30458;SDS011;17254;50.976;7.034;2022-12-18T00:04:24;28.81;;;17.78;;
30458;SDS011;17254;50.976;7.034;2022-12-18T00:04:31;30.18;;;18.42;;
30458;SDS011;17254;50.976;7.034;2022-12-18T00:04:38;30.48;;;18.74;;
30458;SDS011;17254;50.976;7.034;2022-12-18T00:04:44;29.73;;;18.77;;
30458;SDS011;17254;50.976;7.034;2022-12-18T00:04:50;28.92;;;18.77;;
30458;SDS011;17254;50.976;7.034;2022-12-18T00:04:56;28.65;;;18.55;;
30458;SDS011;17254;50.976;7.034;2022-12-18T00:05:05;27.23;;;18.14;;
30458;SDS011;17254;50.976;7.034;2022-12-18T00:05:11;26.82;;;18.38;;
30458;SDS011;17254;50.976;7.034;2022-12-18T00:05:17;26.70;;;18.52;;
30458;SDS011;17254;50.976;7.034;2022-12-18T00:05:23;26.47;;;18.27;;
30458;SDS011;17254;50.976;7.034;2022-12-18T00:05:29;26.17;;;18.20;;
30458;SDS011;17254;50.976;7.034;2022-12-18T00:05:35;26.50;;;18.25;;
30458;SDS011;17254;50.976;7.034;2022-12-18T00:05:48;26.82;;;17.92;;
30458;SDS011;17254;50.976;7.034;2022-12-18T00:05:55;27.01;;;17.93;;
30458;SDS011;17254;50.976;7.034;2022-12-18T00:06:01;28.58;;;17.52;;
30458;SDS011;17254;50.976;7.034;2022-12-18T00:06:08;27.20;;;17.28;;
30458;SDS011;17254;50.976;7.034;2022-12-18T00:06:14;27.00;;;17.42;;
30458;SDS011;17254;50.976;7.034;2022-12-18T00:06:20;28.07;;;17.73;;
30458;SDS011;17254;50.976;7.034;2022-12-18T00:06:28;27.63;;;18.47;;
30458;SDS011;17254;50.976;7.034;2022-12-18T00:06:34;27.37;;;18.53;;
30458;SDS011;17254;50.976;7.034;2022-12-18T00:06:41;28.13;;;18.50;;
30458;SDS011;17254;50.976;7.034;2022-12-18T00:06:46;28.30;;;18.63;;
30458;SDS011;17254;50.976;7.034;2022-12-18T00:06:52;27.50;;;18.43;;
30458;SDS011;17254;50.976;7.034;2022-12-18T00:06:58;27.26;;;18.32;;
30458;SDS011;17254;50.976;7.034;2022-12-18T00:07:04;27.67;;;18.63;;
30458;SDS011;17254;50.976;7.034;2022-12-18T00:07:10;27.48;;;18.58;;
30458;SDS011;17254;50.976;7.034;2022-12-18T00:07:17;27.50;;;18.28;;
30458;SDS011;17254;50.976;7.034;2022-12-18T00:07:23;28.65;;;18.00;;
30458;SDS011;17254;50.976;7.034;2022-12-18T00:07:29;29.30;;;18.00;;
30458;SDS011;17254;50.976;7.034;2022-12-18T00:07:35;28.90;;;17.70;;
30458;SDS011;17254;50.976;7.034;2022-12-18T00:07:42;29.00;;;17.90;;
30458;SDS011;17254;50.976;7.034;2022-12-18T00:07:48;27.97;;;17.63;;
30458;SDS011;17254;50.976;7.034;2022-12-18T00:07:54;28.17;;;18.00;;
30458;SDS011;17254;50.976;7.034;2022-12-18T00:08:00;27.67;;;18.30;;
30458;SDS011;17254;50.976;7.034;2022-12-18T00:08:06;28.03;;;18.43;;
30458;SDS011;17254;50.976;7.034;2022-12-18T00:08:12;27.23;;;18.52;;
30458;SDS011;17254;50.976;7.034;2022-12-18T00:08:18;26.60;;;18.63;;
30458;SDS011;17254;50.976;7.034;2022-12-18T00:08:24;26.50;;;18.60;;
30458;SDS011;17254;50.976;7.034;2022-12-18T00:08:30;27.23;;;18.35;;
30458;SDS011;17254;50.976;7.034;2022-12-18T00:08:38;28.10;;;18.37;;
30458;SDS011;17254;50.976;7.034;2022-12-18T00:08:44;28.67;;;18.20;;
30458;SDS011;17254;50.976;7.034;2022-12-18T00:08:51;29.06;;;18.44;;
30458;SDS011;17254;50.976;7.034;2022-12-18T00:08:58;28.16;;;18.30;;
30458;SDS011;17254;50.976;7.034;2022-12-18T00:09:05;27.83;;;18.70;;
30458;SDS011;17254;50.976;7.034;2022-12-18T00:09:11;28.20;;;18.63;;
30458;SDS011;17254;50.976;7.034;2022-12-18T00:09:17;29.00;;;18.47;;
30458;SDS011;17254;50.976;7.034;2022-12-18T00:09:23;28.54;;;18.28;;
30458;SDS011;17254;50.976;7.034;2022-12-18T00:09:29;27.92;;;18.02;;
30458;SDS011;17254;50.976;7.034;2022-12-18T00:09:35;28.23;;;17.83;;
30458;SDS011;17254;50.976;7.034;2022-12-18T00:09:41;27.80;;;17.70;;
30458;SDS011;17254;50.976;7.034;2022-12-18T00:09:47;25.90;;;17.50;;
30458;SDS011;17254;50.976;7.034;2022-12-18T00:09:53;26.50;;;17.87;;
30458;SDS011;17254;50.976;7.034;2022-12-18T00:09:59;27.67;;;18.00;;
30458;SDS011;17254;50.976;7.034;2022-12-18T00:10:05;27.75;;;17.98;;
30458;SDS011;17254;50.976;7.034;2022-12-18T00:10:12;28.40;;;18.10;;
30458;SDS011;17254;50.976;7.034;2022-12-18T00:10:19;29.63;;;18.40;;
30458;SDS011;17254;50.976;7.034;2022-12-18T00:10:25;28.63;;;18.52;;
30458;SDS011;17254;50.976;7.034;2022-12-18T00:10:32;28.15;;;18.63;;
30458;SDS011;17254;50.976;7.034;2022-12-18T00:10:38;27.80;;;18.98;;
30458;SDS011;17254;50.976;7.034;2022-12-18T00:10:44;26.77;;;18.80;;
30458;SDS011;17254;50.976;7.034;2022-12-18T00:10:50;26.26;;;18.66;;
30458;SDS011;17254;50.976;7.034;2022-12-18T00:11:02;27.40;;;18.55;;
30458;SDS011;17254;50.976;7.034;2022-12-18T00:11:10;28.59;;;18.73;;
30458;SDS011;17254;50.976;7.034;2022-12-18T00:11:18;29.77;;;18.73;;
30458;SDS011;17254;50.976;7.034;2022-12-18T00:11:27;30.03;;;18.43;;
30458;SDS011;17254;50.976;7.034;2022-12-18T00:11:34;28.65;;;17.73;;
30458;SDS011;17254;50.976;7.034;2022-12-18T00:11:40;27.23;;;17.20;;
30458;SDS011;17254;50.976;7.034;2022-12-18T00:11:46;27.88;;;17.25;;
30458;SDS011;17254;50.976;7.034;2022-12-18T00:11:52;27.67;;;17.45;;
30458;SDS011;17254;50.976;7.034;2022-12-18T00:11:58;26.87;;;17.47;;
30458;SDS011;17254;50.976;7.034;2022-12-18T00:12:05;27.90;;;17.60;;
30458;SDS011;17254;50.976;7.034;2022-12-18T00:12:11;28.37;;;17.73;;
30458;SDS011;17254;50.976;7.034;2022-12-18T00:12:17;28.03;;;17.57;;
30458;SDS011;17254;50.976;7.034;2022-12-18T00:12:23;27.75;;;17.33;;
30458;SDS011;17254;50.976;7.034;2022-12-18T00:12:28;27.88;;;17.52;;
30458;SDS011;17254;50.976;7.034;2022-12-18T00:12:34;27.98;;;17.65;;
30458;SDS011;17254;50.976;7.034;2022-12-18T00:12:40;28.88;;;17.73;;
30458;SDS011;17254;50.976;7.034;2022-12-18T00:12:46;28.57;;;17.80;;
30458;SDS011;17254;50.976;7.034;2022-12-18T00:12:52;28.42;;;17.98;;
30458;SDS011;17254;50.976;7.034;2022-12-18T00:12:58;28.20;;;18.17;;
30458;SDS011;17254;50.976;7.034;2022-12-18T00:13:04;27.08;;;17.95;;
30458;SDS011;17254;50.976;7.034;2022-12-18T00:13:10;25.25;;;17.83;;
30458;SDS011;17254;50.976;7.034;2022-12-18T00:13:16;24.15;;;17.73;;
30458;SDS011;17254;50.976;7.034;2022-12-18T00:13:23;24.88;;;17.50;;
30458;SDS011;17254;50.976;7.034;2022-12-18T00:13:29;26.33;;;18.00;;
30458;SDS011;17254;50.976;7.034;2022-12-18T00:13:35;28.02;;;18.65;;
30458;SDS011;17254;50.976;7.034;2022-12-18T00:13:41;28.75;;;18.60;;
30458;SDS011;17254;50.976;7.034;2022-12-18T00:13:47;29.85;;;18.92;;
30458;SDS011;17254;50.976;7.034;2022-12-18T00:13:54;29.60;;;19.40;;
30458;SDS011;17254;50.976;7.034;2022-12-18T00:14:01;28.35;;;18.88;;
30458;SDS011;17254;50.976;7.034;2022-12-18T00:14:08;27.48;;;18.52;;
30458;SDS011;17254;50.976;7.034;2022-12-18T00:14:15;27.37;;;18.70;;
30458;SDS011;17254;50.976;7.034;2022-12-18T00:14:21;27.60;;;18.73;;
30458;SDS011;17254;50.976;7.034;2022-12-18T00:14:27;27.35;;;18.85;;
30458;SDS011;17254;50.976;7.034;2022-12-18T00:14:33;28.10;;;19.23;;
30458;SDS011;17254;50.976;7.034;2022-12-18T00:14:39;28.92;;;19.30;;
30458;SDS011;17254;50.976;7.034;2022-12-18T00:14:48;29.37;;;19.33;;
30458;SDS011;17254;50.976;7.034;2022-12-18T00:14:54;28.42;;;18.90;;
30458;SDS011;17254;50.976;7.034;2022-12-18T00:15:00;29.02;;;18.70;;
30458;SDS011;17254;50.976;7.034;2022-12-18T00:15:06;27.77;;;18.38;;
30458;SDS011;17254;50.976;7.034;2022-12-18T00:15:13;27.10;;;18.15;;
30458;SDS011;17254;50.976;7.034;2022-12-18T00:15:21;26.37;;;18.13;;
30458;SDS011;17254;50.976;7.034;2022-12-18T00:15:27;27.13;;;17.97;;
30458;SDS011;17254;50.976;7.034;2022-12-18T00:15:33;26.50;;;18.13;;
30458;SDS011;17254;50.976;7.034;2022-12-18T00:15:39;26.38;;;18.15;;
30458;SDS011;17254;50.976;7.034;2022-12-18T00:15:45;25.67;;;17.60;;
30458;SDS011;17254;50.976;7.034;2022-12-18T00:15:51;26.60;;;17.52;;
30458;SDS011;17254;50.976;7.034;2022-12-18T00:16:00;27.55;;;18.10;;
30458;SDS011;17254;50.976;7.034;2022-12-18T00:16:08;28.57;;;17.63;;
30458;SDS011;17254;50.976;7.034;2022-12-18T00:16:17;28.73;;;17.64;;
30458;SDS011;17254;50.976;7.034;2022-12-18T00:16:26;26.92;;;17.12;;
30458;SDS011;17254;50.976;7.034;2022-12-18T00:16:32;25.25;;;16.85;;
30458;SDS011;17254;50.976;7.034;2022-12-18T00:16:42;25.07;;;16.97;;
30458;SDS011;17254;50.976;7.034;2022-12-18T00:16:49;26.23;;;16.94;;
30458;SDS011;17254;50.976;7.034;2022-12-18T00:16:55;25.63;;;16.90;;
30458;SDS011;17254;50.976;7.034;2022-12-18T00:17:03;25.80;;;17.12;;
30458;SDS011;17254;50.976;7.034;2022-12-18T00:17:09;26.57;;;17.07;;
30458;SDS011;17254;50.976;7.034;2022-12-18T00:17:15;25.85;;;16.98;;
30458;SDS011;17254;50.976;7.034;2022-12-18T00:17:21;26.63;;;17.55;;
30458;SDS011;17254;50.976;7.034;2022-12-18T00:17:27;27.80;;;17.96;;
30458;SDS011;17254;50.976;7.034;2022-12-18T00:17:33;29.00;;;18.02;;
30458;SDS011;17254;50.976;7.034;2022-12-18T00:17:39;28.85;;;18.23;;
30458;SDS011;17254;50.976;7.034;2022-12-18T00:17:45;29.37;;;18.50;;
30458;SDS011;17254;50.976;7.034;2022-12-18T00:17:51;31.10;;;18.42;;
30458;SDS011;17254;50.976;7.034;2022-12-18T00:17:57;32.55;;;18.48;;
30458;SDS011;17254;50.976;7.034;2022-12-18T00:18:04;33.38;;;18.72;;
30458;SDS011;17254;50.976;7.034;2022-12-18T00:18:12;34.63;;;19.33;;
30458;SDS011;17254;50.976;7.034;2022-12-18T00:18:18;34.78;;;19.63;;
30458;SDS011;17254;50.976;7.034;2022-12-18T00:18:24;33.58;;;19.50;;
30458;SDS011;17254;50.976;7.034;2022-12-18T00:18:31;32.37;;;19.10;;
30458;SDS011;17254;50.976;7.034;2022-12-18T00:18:38;29.67;;;18.40;;
30458;SDS011;17254;50.976;7.034;2022-12-18T00:18:44;28.42;;;17.96;;
30458;SDS011;17254;50.976;7.034;2022-12-18T00:18:51;26.83;;;17.52;;
30458;SDS011;17254;50.976;7.034;2022-12-18T00:18:59;26.28;;;17.70;;
30458;SDS011;17254;50.976;7.034;2022-12-18T00:19:06;27.23;;;18.07;;
30458;SDS011;17254;50.976;7.034;2022-12-18T00:19:12;26.67;;;17.93;;
30458;SDS011;17254;50.976;7.034;2022-12-18T00:19:19;26.90;;;17.96;;
30458;SDS011;17254;50.976;7.034;2022-12-18T00:19:28;26.27;;;17.60;;
30458;SDS011;17254;50.976;7.034;2022-12-18T00:19:34;26.27;;;17.20;;
30458;SDS011;17254;50.976;7.034;2022-12-18T00:19:40;25.42;;;17.13;;
30458;SDS011;17254;50.976;7.034;2022-12-18T00:19:46;25.85;;;17.13;;
30458;SDS011;17254;50.976;7.034;2022-12-18T00:19:52;25.20;;;17.13;;
30458;SDS011;17254;50.976;7.034;2022-12-18T00:19:59;26.05;;;17.20;;
30458;SDS011;17254;50.976;7.034;2022-12-18T00:20:05;25.75;;;17.77;;
30458;SDS011;17254;50.976;7.034;2022-12-18T00:20:12;25.36;;;17.62;;
30458;SDS011;17254;50.976;7.034;2022-12-18T00:20:18;25.08;;;17.58;;
30458;SDS011;17254;50.976;7.034;2022-12-18T00:20:30;25.70;;;17.74;;
30458;SDS011;17254;50.976;7.034;2022-12-18T00:20:36;27.77;;;17.37;;
30458;SDS011;17254;50.976;7.034;2022-12-18T00:20:43;28.04;;;17.58;;
30458;SDS011;17254;50.976;7.034;2022-12-18T00:20:49;28.35;;;17.17;;
30458;SDS011;17254;50.976;7.034;2022-12-18T00:20:58;27.67;;;17.07;;
30458;SDS011;17254;50.976;7.034;2022-12-18T00:21:05;25.87;;;16.91;;
30458;SDS011;17254;50.976;7.034;2022-12-18T00:21:12;24.70;;;17.20;;
30458;SDS011;17254;50.976;7.034;2022-12-18T00:21:19;25.28;;;17.40;;
30458;SDS011;17254;50.976;7.034;2022-12-18T00:21:25;27.80;;;18.10;;
30458;SDS011;17254;50.976;7.034;2022-12-18T00:21:33;27.13;;;18.20;;
30458;SDS011;17254;50.976;7.034;2022-12-18T00:21:39;26.95;;;18.17;;
30458;SDS011;17254;50.976;7.034;2022-12-18T00:21:46;26.07;;;17.67;;
30458;SDS011;17254;50.976;7.034;2022-12-18T00:21:53;24.45;;;17.00;;
30458;SDS011;17254;50.976;7.034;2022-12-18T00:21:59;23.00;;;16.25;;
30458;SDS011;17254;50.976;7.034;2022-12-18T00:22:05;23.75;;;16.10;;
30458;SDS011;17254;50.976;7.034;2022-12-18T00:22:11;23.67;;;16.05;;
30458;SDS011;17254;50.976;7.034;2022-12-18T00:22:17;24.95;;;16.23;;
30458;SDS011;17254;50.976;7.034;2022-12-18T00:22:23;24.90;;;16.40;;
30458;SDS011;17254;50.976;7.034;2022-12-18T00:22:29;26.10;;;16.55;;
30458;SDS011;17254;50.976;7.034;2022-12-18T00:22:35;27.25;;;16.95;;
30458;SDS011;17254;50.976;7.034;2022-12-18T00:22:42;28.25;;;17.20;;
30458;SDS011;17254;50.976;7.034;2022-12-18T00:22:48;27.72;;;17.36;;
30458;SDS011;17254;50.976;7.034;2022-12-18T00:22:55;28.87;;;18.17;;
30458;SDS011;17254;50.976;7.034;2022-12-18T00:23:02;27.85;;;18.38;;
30458;SDS011;17254;50.976;7.034;2022-12-18T00:23:08;27.57;;;18.00;;
30458;SDS011;17254;50.976;7.034;2022-12-18T00:23:14;28.07;;;17.97;;
30458;SDS011;17254;50.976;7.034;2022-12-18T00:23:19;27.17;;;17.58;;
30458;SDS011;17254;50.976;7.034;2022-12-18T00:23:25;26.77;;;17.23;;
30458;SDS011;17254;50.976;7.034;2022-12-18T00:23:32;25.93;;;16.80;;
30458;SDS011;17254;50.976;7.034;2022-12-18T00:23:40;23.37;;;16.67;;
30458;SDS011;17254;50.976;7.034;2022-12-18T00:23:48;23.20;;;17.03;;
30458;SDS011;17254;50.976;7.034;2022-12-18T00:23:55;23.54;;;17.34;;
30458;SDS011;17254;50.976;7.034;2022-12-18T00:24:01;24.70;;;17.50;;
30458;SDS011;17254;50.976;7.034;2022-12-18T00:24:07;25.27;;;17.45;;
30458;SDS011;17254;50.976;7.034;2022-12-18T00:24:13;25.25;;;17.10;;
30458;SDS011;17254;50.976;7.034;2022-12-18T00:24:19;24.80;;;16.77;;
30458;SDS011;17254;50.976;7.034;2022-12-18T00:24:25;23.33;;;16.33;;
30458;SDS011;17254;50.976;7.034;2022-12-18T00:24:32;23.20;;;16.20;;
30458;SDS011;17254;50.976;7.034;2022-12-18T00:24:38;23.02;;;15.98;;
30458;SDS011;17254;50.976;7.034;2022-12-18T00:24:44;23.70;;;16.10;;
30458;SDS011;17254;50.976;7.034;2022-12-18T00:24:50;24.35;;;16.00;;
30458;SDS011;17254;50.976;7.034;2022-12-18T00:24:56;24.43;;;16.07;;
30458;SDS011;17254;50.976;7.034;2022-12-18T00:25:02;23.67;;;16.10;;
30458;SDS011;17254;50.976;7.034;2022-12-18T00:25:08;23.86;;;16.32;;
30458;SDS011;17254;50.976;7.034;2022-12-18T00:25:14;23.97;;;16.57;;
30458;SDS011;17254;50.976;7.034;2022-12-18T00:25:20;25.05;;;17.42;;
30458;SDS011;17254;50.976;7.034;2022-12-18T00:25:26;26.08;;;17.88;;
30458;SDS011;17254;50.976;7.034;2022-12-18T00:25:32;26.02;;;18.15;;
30458;SDS011;17254;50.976;7.034;2022-12-18T00:25:39;27.06;;;18.68;;
30458;SDS011;17254;50.976;7.034;2022-12-18T00:25:45;27.30;;;18.90;;
30458;SDS011;17254;50.976;7.034;2022-12-18T00:25:51;27.05;;;18.48;;
30458;SDS011;17254;50.976;7.034;2022-12-18T00:25:58;27.17;;;18.35;;
30458;SDS011;17254;50.976;7.034;2022-12-18T00:26:05;27.30;;;17.85;;
30458;SDS011;17254;50.976;7.034;2022-12-18T00:26:14;26.36;;;16.92;;
30458;SDS011;17254;50.976;7.034;2022-12-18T00:26:23;26.27;;;16.67;;
30458;SDS011;17254;50.976;7.034;2022-12-18T00:26:34;26.06;;;16.56;;
30458;SDS011;17254;50.976;7.034;2022-12-18T00:26:42;26.00;;;16.88;;
30458;SDS011;17254;50.976;7.034;2022-12-18T00:26:48;26.48;;;17.52;;
30458;SDS011;17254;50.976;7.034;2022-12-18T00:26:53;26.20;;;17.58;;
30458;SDS011;17254;50.976;7.034;2022-12-18T00:26:59;25.40;;;17.23;;
30458;SDS011;17254;50.976;7.034;2022-12-18T00:27:05;25.33;;;17.67;;
30458;SDS011;17254;50.976;7.034;2022-12-18T00:27:11;25.48;;;17.52;;
30458;SDS011;17254;50.976;7.034;2022-12-18T00:27:17;25.55;;;17.38;;
30458;SDS011;17254;50.976;7.034;2022-12-18T00:27:23;25.33;;;17.50;;
30458;SDS011;17254;50.976;7.034;2022-12-18T00:27:30;25.83;;;18.30;;
30458;SDS011;17254;50.976;7.034;2022-12-18T00:27:35;26.33;;;18.00;;
30458;SDS011;17254;50.976;7.034;2022-12-18T00:27:41;26.52;;;18.38;;
30458;SDS011;17254;50.976;7.034;2022-12-18T00:27:47;26.58;;;18.42;;
30458;SDS011;17254;50.976;7.034;2022-12-18T00:27:53;26.83;;;18.38;;
30458;SDS011;17254;50.976;7.034;2022-12-18T00:27:59;27.58;;;18.58;;
30458;SDS011;17254;50.976;7.034;2022-12-18T00:28:05;27.87;;;18.87;;
30458;SDS011;17254;50.976;7.034;2022-12-18T00:28:11;28.33;;;18.80;;
30458;SDS011;17254;50.976;7.034;2022-12-18T00:28:17;29.07;;;18.33;;
30458;SDS011;17254;50.976;7.034;2022-12-18T00:28:23;30.45;;;18.52;;
30458;SDS011;17254;50.976;7.034;2022-12-18T00:28:29;30.67;;;18.23;;
30458;SDS011;17254;50.976;7.034;2022-12-18T00:28:35;30.77;;;18.10;;
30458;SDS011;17254;50.976;7.034;2022-12-18T00:28:41;30.47;;;17.67;;
30458;SDS011;17254;50.976;7.034;2022-12-18T00:28:48;29.90;;;18.03;;
30458;SDS011;17254;50.976;7.034;2022-12-18T00:28:53;28.20;;;17.77;;
30458;SDS011;17254;50.976;7.034;2022-12-18T00:29:05;28.43;;;17.86;;
30458;SDS011;17254;50.976;7.034;2022-12-18T00:29:13;28.29;;;18.30;;
30458;SDS011;17254;50.976;7.034;2022-12-18T00:29:19;26.50;;;18.17;;
30458;SDS011;17254;50.976;7.034;2022-12-18T00:29:25;25.73;;;18.10;;
30458;SDS011;17254;50.976;7.034;2022-12-18T00:29:32;24.93;;;18.23;;
30458;SDS011;17254;50.976;7.034;2022-12-18T00:29:38;24.73;;;17.53;;
30458;SDS011;17254;50.976;7.034;2022-12-18T00:29:47;25.90;;;17.02;;
30458;SDS011;17254;50.976;7.034;2022-12-18T00:29:54;27.05;;;17.47;;
30458;SDS011;17254;50.976;7.034;2022-12-18T00:30:00;26.97;;;17.27;;
30458;SDS011;17254;50.976;7.034;2022-12-18T00:30:06;25.85;;;16.88;;
30458;SDS011;17254;50.976;7.034;2022-12-18T00:30:13;26.54;;;17.76;;
30458;SDS011;17254;50.976;7.034;2022-12-18T00:30:19;26.14;;;17.56;;
30458;SDS011;17254;50.976;7.034;2022-12-18T00:30:25;27.53;;;17.57;;
30458;SDS011;17254;50.976;7.034;2022-12-18T00:30:32;28.87;;;17.73;;
30458;SDS011;17254;50.976;7.034;2022-12-18T00:30:38;29.83;;;17.63;;
30458;SDS011;17254;50.976;7.034;2022-12-18T00:30:43;28.50;;;17.30;;
30458;SDS011;17254;50.976;7.034;2022-12-18T00:30:50;28.43;;;17.70;;
30458;SDS011;17254;50.976;7.034;2022-12-18T00:31:04;27.69;;;17.85;;
30458;SDS011;17254;50.976;7.034;2022-12-18T00:31:13;26.29;;;17.59;;
30458;SDS011;17254;50.976;7.034;2022-12-18T00:31:22;26.36;;;17.73;;
30458;SDS011;17254;50.976;7.034;2022-12-18T00:31:31;24.50;;;17.36;;
30458;SDS011;17254;50.976;7.034;2022-12-18T00:31:40;23.89;;;17.41;;
30458;SDS011;17254;50.976;7.034;2022-12-18T00:31:46;23.83;;;17.37;;
30458;SDS011;17254;50.976;7.034;2022-12-18T00:31:52;23.60;;;16.95;;
30458;SDS011;17254;50.976;7.034;2022-12-18T00:31:58;24.73;;;16.87;;
30458;SDS011;17254;50.976;7.034;2022-12-18T00:32:04;25.92;;;16.85;;
30458;SDS011;17254;50.976;7.034;2022-12-18T00:32:11;25.67;;;16.77;;
30458;SDS011;17254;50.976;7.034;2022-12-18T00:32:17;25.80;;;16.58;;
30458;SDS011;17254;50.976;7.034;2022-12-18T00:32:23;26.50;;;16.88;;
30458;SDS011;17254;50.976;7.034;2022-12-18T00:32:29;25.77;;;16.90;;
30458;SDS011;17254;50.976;7.034;2022-12-18T00:32:35;24.93;;;16.73;;
30458;SDS011;17254;50.976;7.034;2022-12-18T00:32:41;26.17;;;16.97;;
30458;SDS011;17254;50.976;7.034;2022-12-18T00:32:47;26.63;;;17.07;;
30458;SDS011;17254;50.976;7.034;2022-12-18T00:32:53;26.45;;;17.00;;
30458;SDS011;17254;50.976;7.034;2022-12-18T00:32:58;25.60;;;16.92;;
30458;SDS011;17254;50.976;7.034;2022-12-18T00:33:04;25.15;;;16.77;;
30458;SDS011;17254;50.976;7.034;2022-12-18T00:33:10;24.30;;;16.70;;
30458;SDS011;17254;50.976;7.034;2022-12-18T00:33:16;24.27;;;16.73;;
30458;SDS011;17254;50.976;7.034;2022-12-18T00:33:22;23.02;;;16.58;;
30458;SDS011;17254;50.976;7.034;2022-12-18T00:33:28;25.07;;;16.93;;
30458;SDS011;17254;50.976;7.034;2022-12-18T00:33:34;26.55;;;16.95;;
30458;SDS011;17254;50.976;7.034;2022-12-18T00:33:41;27.62;;;16.88;;
30458;SDS011;17254;50.976;7.034;2022-12-18T00:33:48;26.90;;;16.43;;
30458;SDS011;17254;50.976;7.034;2022-12-18T00:33:55;27.26;;;16.08;;
30458;SDS011;17254;50.976;7.034;2022-12-18T00:34:02;26.27;;;15.80;;
30458;SDS011;17254;50.976;7.034;2022-12-18T00:34:09;24.48;;;15.46;;
30458;SDS011;17254;50.976;7.034;2022-12-18T00:34:18;24.17;;;15.56;;
30458;SDS011;17254;50.976;7.034;2022-12-18T00:34:24;24.02;;;15.52;;
30458;SDS011;17254;50.976;7.034;2022-12-18T00:34:31;22.47;;;15.37;;
30458;SDS011;17254;50.976;7.034;2022-12-18T00:34:37;23.08;;;15.65;;
30458;SDS011;17254;50.976;7.034;2022-12-18T00:34:43;23.42;;;16.13;;
30458;SDS011;17254;50.976;7.034;2022-12-18T00:34:48;22.85;;;16.02;;
30458;SDS011;17254;50.976;7.034;2022-12-18T00:34:54;22.83;;;16.23;;
30458;SDS011;17254;50.976;7.034;2022-12-18T00:35:01;22.25;;;16.05;;
30458;SDS011;17254;50.976;7.034;2022-12-18T00:35:07;22.73;;;15.97;;
30458;SDS011;17254;50.976;7.034;2022-12-18T00:35:14;23.57;;;15.80;;
30458;SDS011;17254;50.976;7.034;2022-12-18T00:35:19;23.15;;;16.05;;
30458;SDS011;17254;50.976;7.034;2022-12-18T00:35:26;23.27;;;16.27;;
30458;SDS011;17254;50.976;7.034;2022-12-18T00:35:31;23.80;;;16.73;;
30458;SDS011;17254;50.976;7.034;2022-12-18T00:35:37;23.83;;;16.98;;
30458;SDS011;17254;50.976;7.034;2022-12-18T00:35:43;23.73;;;17.23;;
30458;SDS011;17254;50.976;7.034;2022-12-18T00:35:49;25.30;;;17.90;;
30458;SDS011;17254;50.976;7.034;2022-12-18T00:35:59;25.63;;;17.92;;
30458;SDS011;17254;50.976;7.034;2022-12-18T00:36:06;27.56;;;17.99;;
30458;SDS011;17254;50.976;7.034;2022-12-18T00:36:15;27.73;;;17.67;;
30458;SDS011;17254;50.976;7.034;2022-12-18T00:36:23;27.27;;;17.37;;
30458;SDS011;17254;50.976;7.034;2022-12-18T00:36:31;26.88;;;17.12;;
30458;SDS011;17254;50.976;7.034;2022-12-18T00:36:40;25.40;;;16.89;;
30458;SDS011;17254;50.976;7.034;2022-12-18T00:36:47;24.87;;;16.93;;
30458;SDS011;17254;50.976;7.034;2022-12-18T00:36:53;25.34;;;17.06;;
30458;SDS011;17254;50.976;7.034;2022-12-18T00:37:00;25.57;;;17.00;;
30458;SDS011;17254;50.976;7.034;2022-12-18T00:37:06;26.30;;;17.05;;
30458;SDS011;17254;50.976;7.034;2022-12-18T00:37:12;26.13;;;16.85;;
30458;SDS011;17254;50.976;7.034;2022-12-18T00:37:18;25.95;;;16.75;;
30458;SDS011;17254;50.976;7.034;2022-12-18T00:37:24;25.50;;;16.67;;
30458;SDS011;17254;50.976;7.034;2022-12-18T00:37:29;24.65;;;16.65;;
30458;SDS011;17254;50.976;7.034;2022-12-18T00:37:35;23.95;;;16.70;;
30458;SDS011;17254;50.976;7.034;2022-12-18T00:37:43;23.73;;;16.50;;
30458;SDS011;17254;50.976;7.034;2022-12-18T00:37:50;23.91;;;16.40;;
30458;SDS011;17254;50.976;7.034;2022-12-18T00:37:56;24.20;;;16.15;;
30458;SDS011;17254;50.976;7.034;2022-12-18T00:38:02;25.67;;;16.33;;
30458;SDS011;17254;50.976;7.034;2022-12-18T00:38:08;25.63;;;16.75;;
30458;SDS011;17254;50.976;7.034;2022-12-18T00:38:14;25.38;;;16.90;;
30458;SDS011;17254;50.976;7.034;2022-12-18T00:38:20;25.77;;;17.17;;
30458;SDS011;17254;50.976;7.034;2022-12-18T00:38:26;26.95;;;17.40;;
30458;SDS011;17254;50.976;7.034;2022-12-18T00:38:33;25.68;;;17.24;;
30458;SDS011;17254;50.976;7.034;2022-12-18T00:38:39;25.70;;;16.77;;
30458;SDS011;17254;50.976;7.034;2022-12-18T00:38:45;26.83;;;17.13;;
30458;SDS011;17254;50.976;7.034;2022-12-18T00:38:53;26.38;;;17.14;;
30458;SDS011;17254;50.976;7.034;2022-12-18T00:39:00;26.10;;;17.56;;